KSMX/SMX METAR and TAF weather

Enter ICAO airport designator
Station Type Date Time Source
KSMX METAR 2021/05/14 03:51 UTC NOAA

KSMX 140351Z AUTO 30007KT 9SM OVC007 11/09 A3002 RMK AO2 SLP170 T01110089 $


Station Type Date Time Source
KSMX Decoded METAR 2021/05/14 03:51 UTC NOAA

SANTA MARIA PUBLIC AIRPORT, CA, United States (KSMX) 34-54N 120-28W 74M
May 13, 2021 - 11:51 PM EDT / 2021.05.14 0351 UTC
Wind: from the WNW (300 degrees) at 8 MPH (7 KT):0
Visibility: 9 mile(s):0
Sky conditions: overcast
Temperature: 52.0 F (11.1 C)
Dew Point: 48.0 F (8.9 C)
Relative Humidity: 86%
Pressure (altimeter): 30.02 in. Hg (1016 hPa)
ob: KSMX 140351Z AUTO 30007KT 9SM OVC007 11/09 A3002 RMK AO2 SLP170 T01110089
cycle: 4

Station Type Date Time Source
KSMX TAF 2021/05/13 20:18 UTC NOAA

TAF
AMD KSMX 132016Z 1320/1418 VRB03KT P6SM SCT018
FM132100 32008KT P6SM FEW010
FM140200 31006KT P6SM BKN010
FM140400 VRB03KT P6SM OVC006
FM140800 VRB03KT 3SM BR OVC003

Example: see airport list